sensor_id;sensor_type;location;lat;lon;timestamp;P1;durP1;ratioP1;P2;durP2;ratioP2
11414;SDS011;5763;42.714;23.244;2023-05-07T00:00:40;5.03;;;4.57;;
11414;SDS011;5763;42.714;23.244;2023-05-07T00:03:07;6.22;;;4.50;;
11414;SDS011;5763;42.714;23.244;2023-05-07T00:05:35;6.45;;;4.65;;
11414;SDS011;5763;42.714;23.244;2023-05-07T00:08:03;7.15;;;5.03;;
11414;SDS011;5763;42.714;23.244;2023-05-07T00:10:30;5.32;;;4.82;;
11414;SDS011;5763;42.714;23.244;2023-05-07T00:12:57;5.75;;;4.63;;
11414;SDS011;5763;42.714;23.244;2023-05-07T00:15:24;4.80;;;4.30;;
11414;SDS011;5763;42.714;23.244;2023-05-07T00:17:50;4.68;;;4.20;;
11414;SDS011;5763;42.714;23.244;2023-05-07T00:20:17;5.25;;;4.60;;
11414;SDS011;5763;42.714;23.244;2023-05-07T00:22:46;4.60;;;3.85;;
11414;SDS011;5763;42.714;23.244;2023-05-07T00:25:12;5.75;;;4.45;;
11414;SDS011;5763;42.714;23.244;2023-05-07T00:27:39;6.85;;;4.53;;
11414;SDS011;5763;42.714;23.244;2023-05-07T00:30:07;5.85;;;4.40;;
11414;SDS011;5763;42.714;23.244;2023-05-07T00:32:35;4.45;;;4.05;;
11414;SDS011;5763;42.714;23.244;2023-05-07T00:35:02;4.93;;;4.03;;
11414;SDS011;5763;42.714;23.244;2023-05-07T00:37:29;4.63;;;4.07;;
11414;SDS011;5763;42.714;23.244;2023-05-07T00:39:57;4.80;;;4.10;;
11414;SDS011;5763;42.714;23.244;2023-05-07T00:42:24;4.32;;;3.83;;
11414;SDS011;5763;42.714;23.244;2023-05-07T00:44:51;4.90;;;4.40;;
11414;SDS011;5763;42.714;23.244;2023-05-07T00:47:18;5.38;;;4.45;;
11414;SDS011;5763;42.714;23.244;2023-05-07T00:49:45;4.85;;;4.35;;
11414;SDS011;5763;42.714;23.244;2023-05-07T00:52:13;5.60;;;4.97;;
11414;SDS011;5763;42.714;23.244;2023-05-07T00:54:41;5.72;;;4.07;;
11414;SDS011;5763;42.714;23.244;2023-05-07T00:57:10;4.78;;;4.28;;
11414;SDS011;5763;42.714;23.244;2023-05-07T00:59:37;6.13;;;4.22;;
11414;SDS011;5763;42.714;23.244;2023-05-07T01:02:05;7.32;;;4.72;;
11414;SDS011;5763;42.714;23.244;2023-05-07T01:04:32;4.65;;;3.72;;
11414;SDS011;5763;42.714;23.244;2023-05-07T01:07:00;4.18;;;3.75;;
11414;SDS011;5763;42.714;23.244;2023-05-07T01:09:28;4.45;;;4.05;;
11414;SDS011;5763;42.714;23.244;2023-05-07T01:11:55;5.25;;;3.90;;
11414;SDS011;5763;42.714;23.244;2023-05-07T01:14:25;4.57;;;4.00;;
11414;SDS011;5763;42.714;23.244;2023-05-07T01:16:52;4.40;;;3.90;;
11414;SDS011;5763;42.714;23.244;2023-05-07T01:19:20;4.05;;;3.60;;
11414;SDS011;5763;42.714;23.244;2023-05-07T01:21:47;4.13;;;3.72;;
11414;SDS011;5763;42.714;23.244;2023-05-07T01:24:16;4.80;;;3.78;;
11414;SDS011;5763;42.714;23.244;2023-05-07T01:26:44;4.45;;;3.92;;
11414;SDS011;5763;42.714;23.244;2023-05-07T01:29:11;4.22;;;3.70;;
11414;SDS011;5763;42.714;23.244;2023-05-07T01:31:37;4.65;;;4.07;;
11414;SDS011;5763;42.714;23.244;2023-05-07T01:34:06;5.43;;;4.05;;
11414;SDS011;5763;42.714;23.244;2023-05-07T01:36:34;4.38;;;3.95;;
11414;SDS011;5763;42.714;23.244;2023-05-07T01:39:03;5.80;;;3.95;;
11414;SDS011;5763;42.714;23.244;2023-05-07T01:41:33;4.28;;;3.88;;
11414;SDS011;5763;42.714;23.244;2023-05-07T01:44:00;4.32;;;3.65;;
11414;SDS011;5763;42.714;23.244;2023-05-07T01:46:29;5.25;;;4.47;;
11414;SDS011;5763;42.714;23.244;2023-05-07T01:48:57;4.50;;;4.10;;
11414;SDS011;5763;42.714;23.244;2023-05-07T01:51:24;5.15;;;4.60;;
11414;SDS011;5763;42.714;23.244;2023-05-07T01:53:52;5.70;;;5.20;;
11414;SDS011;5763;42.714;23.244;2023-05-07T01:56:19;5.45;;;4.90;;
11414;SDS011;5763;42.714;23.244;2023-05-07T01:58:48;6.40;;;5.68;;
11414;SDS011;5763;42.714;23.244;2023-05-07T02:01:16;5.65;;;5.13;;
11414;SDS011;5763;42.714;23.244;2023-05-07T02:03:43;7.70;;;5.43;;
11414;SDS011;5763;42.714;23.244;2023-05-07T02:06:10;7.47;;;5.15;;
11414;SDS011;5763;42.714;23.244;2023-05-07T02:08:37;5.50;;;4.70;;
11414;SDS011;5763;42.714;23.244;2023-05-07T02:11:05;7.07;;;5.03;;
11414;SDS011;5763;42.714;23.244;2023-05-07T02:13:33;6.88;;;5.43;;
11414;SDS011;5763;42.714;23.244;2023-05-07T02:16:02;6.13;;;5.30;;
11414;SDS011;5763;42.714;23.244;2023-05-07T02:18:29;6.72;;;5.25;;
11414;SDS011;5763;42.714;23.244;2023-05-07T02:20:56;7.10;;;5.55;;
11414;SDS011;5763;42.714;23.244;2023-05-07T02:23:23;7.22;;;5.63;;
11414;SDS011;5763;42.714;23.244;2023-05-07T02:25:50;6.38;;;5.13;;
11414;SDS011;5763;42.714;23.244;2023-05-07T02:28:17;6.07;;;5.47;;
11414;SDS011;5763;42.714;23.244;2023-05-07T02:30:44;6.88;;;5.60;;
11414;SDS011;5763;42.714;23.244;2023-05-07T02:33:12;8.02;;;5.55;;
11414;SDS011;5763;42.714;23.244;2023-05-07T02:35:39;6.57;;;5.75;;
11414;SDS011;5763;42.714;23.244;2023-05-07T02:38:06;6.18;;;5.57;;
11414;SDS011;5763;42.714;23.244;2023-05-07T02:40:35;6.57;;;5.93;;
11414;SDS011;5763;42.714;23.244;2023-05-07T02:43:03;6.22;;;5.63;;
11414;SDS011;5763;42.714;23.244;2023-05-07T02:45:30;6.22;;;5.63;;
11414;SDS011;5763;42.714;23.244;2023-05-07T02:47:57;6.72;;;6.03;;
11414;SDS011;5763;42.714;23.244;2023-05-07T02:50:26;7.53;;;5.78;;
11414;SDS011;5763;42.714;23.244;2023-05-07T02:52:52;7.75;;;5.70;;
11414;SDS011;5763;42.714;23.244;2023-05-07T02:55:19;7.60;;;5.93;;
11414;SDS011;5763;42.714;23.244;2023-05-07T02:57:46;6.93;;;6.22;;
11414;SDS011;5763;42.714;23.244;2023-05-07T03:00:14;8.07;;;6.15;;
11414;SDS011;5763;42.714;23.244;2023-05-07T03:02:42;7.30;;;6.22;;
11414;SDS011;5763;42.714;23.244;2023-05-07T03:05:09;7.28;;;6.03;;
11414;SDS011;5763;42.714;23.244;2023-05-07T03:07:38;7.32;;;6.18;;
11414;SDS011;5763;42.714;23.244;2023-05-07T03:10:06;6.18;;;5.60;;
11414;SDS011;5763;42.714;23.244;2023-05-07T03:12:33;7.10;;;6.03;;
11414;SDS011;5763;42.714;23.244;2023-05-07T03:15:00;7.03;;;6.40;;
11414;SDS011;5763;42.714;23.244;2023-05-07T03:17:27;5.90;;;5.30;;
11414;SDS011;5763;42.714;23.244;2023-05-07T03:19:54;7.28;;;6.18;;
11414;SDS011;5763;42.714;23.244;2023-05-07T03:22:21;7.35;;;6.07;;
11414;SDS011;5763;42.714;23.244;2023-05-07T03:24:49;6.07;;;5.47;;
11414;SDS011;5763;42.714;23.244;2023-05-07T03:27:16;6.20;;;5.50;;
11414;SDS011;5763;42.714;23.244;2023-05-07T03:29:43;6.65;;;5.55;;
11414;SDS011;5763;42.714;23.244;2023-05-07T03:32:09;8.23;;;5.88;;
11414;SDS011;5763;42.714;23.244;2023-05-07T03:34:36;6.65;;;5.47;;
11414;SDS011;5763;42.714;23.244;2023-05-07T03:37:03;6.22;;;5.53;;
11414;SDS011;5763;42.714;23.244;2023-05-07T03:39:30;7.13;;;5.78;;
11414;SDS011;5763;42.714;23.244;2023-05-07T03:41:58;7.80;;;5.63;;
11414;SDS011;5763;42.714;23.244;2023-05-07T03:44:25;7.10;;;5.70;;
11414;SDS011;5763;42.714;23.244;2023-05-07T03:46:52;7.47;;;5.57;;
11414;SDS011;5763;42.714;23.244;2023-05-07T03:49:20;6.93;;;5.78;;
11414;SDS011;5763;42.714;23.244;2023-05-07T03:51:47;7.55;;;6.38;;
11414;SDS011;5763;42.714;23.244;2023-05-07T03:54:13;6.72;;;6.00;;
11414;SDS011;5763;42.714;23.244;2023-05-07T03:56:40;7.32;;;6.60;;
11414;SDS011;5763;42.714;23.244;2023-05-07T03:59:08;9.63;;;6.88;;
11414;SDS011;5763;42.714;23.244;2023-05-07T04:01:35;8.85;;;6.63;;
11414;SDS011;5763;42.714;23.244;2023-05-07T04:04:02;8.15;;;6.00;;
11414;SDS011;5763;42.714;23.244;2023-05-07T04:06:29;6.07;;;5.47;;
11414;SDS011;5763;42.714;23.244;2023-05-07T04:08:56;6.93;;;6.22;;
11414;SDS011;5763;42.714;23.244;2023-05-07T04:11:23;8.20;;;6.95;;
11414;SDS011;5763;42.714;23.244;2023-05-07T04:13:51;6.43;;;5.72;;
11414;SDS011;5763;42.714;23.244;2023-05-07T04:16:19;7.55;;;5.70;;
11414;SDS011;5763;42.714;23.244;2023-05-07T04:18:46;6.97;;;6.28;;
11414;SDS011;5763;42.714;23.244;2023-05-07T04:21:15;8.77;;;6.25;;
11414;SDS011;5763;42.714;23.244;2023-05-07T04:23:42;6.80;;;6.10;;
11414;SDS011;5763;42.714;23.244;2023-05-07T04:26:09;6.85;;;5.82;;
11414;SDS011;5763;42.714;23.244;2023-05-07T04:28:36;7.88;;;6.65;;
11414;SDS011;5763;42.714;23.244;2023-05-07T04:31:03;7.95;;;6.07;;
11414;SDS011;5763;42.714;23.244;2023-05-07T04:33:31;8.10;;;6.45;;
11414;SDS011;5763;42.714;23.244;2023-05-07T04:35:58;7.60;;;6.80;;
11414;SDS011;5763;42.714;23.244;2023-05-07T04:38:28;8.65;;;6.30;;
11414;SDS011;5763;42.714;23.244;2023-05-07T04:40:56;6.85;;;6.18;;
11414;SDS011;5763;42.714;23.244;2023-05-07T04:43:23;10.07;;;6.32;;
11414;SDS011;5763;42.714;23.244;2023-05-07T04:45:50;8.25;;;5.82;;
11414;SDS011;5763;42.714;23.244;2023-05-07T04:48:17;6.32;;;5.72;;
11414;SDS011;5763;42.714;23.244;2023-05-07T04:50:48;7.78;;;6.80;;
11414;SDS011;5763;42.714;23.244;2023-05-07T04:53:15;7.85;;;6.60;;
11414;SDS011;5763;42.714;23.244;2023-05-07T04:55:45;7.03;;;6.30;;
11414;SDS011;5763;42.714;23.244;2023-05-07T04:58:11;6.68;;;6.07;;
11414;SDS011;5763;42.714;23.244;2023-05-07T05:00:39;9.63;;;7.13;;
11414;SDS011;5763;42.714;23.244;2023-05-07T05:03:06;7.15;;;6.40;;
11414;SDS011;5763;42.714;23.244;2023-05-07T05:05:33;11.02;;;6.85;;
11414;SDS011;5763;42.714;23.244;2023-05-07T05:08:01;8.57;;;6.97;;
11414;SDS011;5763;42.714;23.244;2023-05-07T05:10:28;7.20;;;6.50;;
11414;SDS011;5763;42.714;23.244;2023-05-07T05:12:55;8.10;;;6.47;;
11414;SDS011;5763;42.714;23.244;2023-05-07T05:15:22;8.43;;;7.18;;
11414;SDS011;5763;42.714;23.244;2023-05-07T05:17:49;9.55;;;8.63;;
11414;SDS011;5763;42.714;23.244;2023-05-07T05:20:16;9.00;;;7.72;;
11414;SDS011;5763;42.714;23.244;2023-05-07T05:22:43;8.80;;;7.20;;
11414;SDS011;5763;42.714;23.244;2023-05-07T05:25:12;9.93;;;7.63;;
11414;SDS011;5763;42.714;23.244;2023-05-07T05:27:38;8.65;;;7.85;;
11414;SDS011;5763;42.714;23.244;2023-05-07T05:30:06;8.48;;;7.32;;
11414;SDS011;5763;42.714;23.244;2023-05-07T05:32:33;9.38;;;8.13;;
11414;SDS011;5763;42.714;23.244;2023-05-07T05:35:00;10.25;;;9.25;;
11414;SDS011;5763;42.714;23.244;2023-05-07T05:37:27;10.30;;;7.95;;
11414;SDS011;5763;42.714;23.244;2023-05-07T05:39:55;10.43;;;8.60;;
11414;SDS011;5763;42.714;23.244;2023-05-07T05:42:23;9.48;;;7.57;;
11414;SDS011;5763;42.714;23.244;2023-05-07T05:44:50;9.90;;;8.27;;
11414;SDS011;5763;42.714;23.244;2023-05-07T05:47:17;9.63;;;7.93;;
11414;SDS011;5763;42.714;23.244;2023-05-07T05:49:44;9.88;;;8.20;;
11414;SDS011;5763;42.714;23.244;2023-05-07T05:52:11;11.25;;;8.05;;
11414;SDS011;5763;42.714;23.244;2023-05-07T05:54:39;9.68;;;8.68;;
11414;SDS011;5763;42.714;23.244;2023-05-07T05:57:06;9.35;;;8.40;;
11414;SDS011;5763;42.714;23.244;2023-05-07T05:59:34;9.98;;;8.98;;
11414;SDS011;5763;42.714;23.244;2023-05-07T06:02:01;9.13;;;8.07;;
11414;SDS011;5763;42.714;23.244;2023-05-07T06:04:28;9.30;;;8.30;;
11414;SDS011;5763;42.714;23.244;2023-05-07T06:06:55;10.55;;;8.90;;
11414;SDS011;5763;42.714;23.244;2023-05-07T06:09:22;10.52;;;9.35;;
11414;SDS011;5763;42.714;23.244;2023-05-07T06:11:49;10.80;;;8.68;;
11414;SDS011;5763;42.714;23.244;2023-05-07T06:14:16;9.38;;;8.38;;
11414;SDS011;5763;42.714;23.244;2023-05-07T06:16:45;9.73;;;8.35;;
11414;SDS011;5763;42.714;23.244;2023-05-07T06:19:11;10.27;;;8.95;;
11414;SDS011;5763;42.714;23.244;2023-05-07T06:21:39;10.07;;;9.07;;
11414;SDS011;5763;42.714;23.244;2023-05-07T06:24:08;11.40;;;9.45;;
11414;SDS011;5763;42.714;23.244;2023-05-07T06:26:37;9.73;;;8.73;;
11414;SDS011;5763;42.714;23.244;2023-05-07T06:29:05;9.88;;;8.55;;
11414;SDS011;5763;42.714;23.244;2023-05-07T06:31:33;9.65;;;8.10;;
11414;SDS011;5763;42.714;23.244;2023-05-07T06:34:01;10.20;;;9.20;;
11414;SDS011;5763;42.714;23.244;2023-05-07T06:36:29;12.32;;;11.00;;
11414;SDS011;5763;42.714;23.244;2023-05-07T06:38:56;11.95;;;9.65;;
11414;SDS011;5763;42.714;23.244;2023-05-07T06:41:23;10.55;;;8.90;;
11414;SDS011;5763;42.714;23.244;2023-05-07T06:43:50;11.43;;;9.95;;
11414;SDS011;5763;42.714;23.244;2023-05-07T06:46:18;11.55;;;9.18;;
11414;SDS011;5763;42.714;23.244;2023-05-07T06:48:45;12.27;;;10.10;;
11414;SDS011;5763;42.714;23.244;2023-05-07T06:51:13;14.48;;;10.80;;
11414;SDS011;5763;42.714;23.244;2023-05-07T06:53:40;11.10;;;9.80;;
11414;SDS011;5763;42.714;23.244;2023-05-07T06:56:07;9.85;;;8.85;;
11414;SDS011;5763;42.714;23.244;2023-05-07T06:58:33;10.32;;;8.68;;
11414;SDS011;5763;42.714;23.244;2023-05-07T07:01:00;11.02;;;9.82;;
11414;SDS011;5763;42.714;23.244;2023-05-07T07:03:27;8.98;;;8.13;;
11414;SDS011;5763;42.714;23.244;2023-05-07T07:05:54;11.63;;;9.68;;
11414;SDS011;5763;42.714;23.244;2023-05-07T07:08:22;10.82;;;9.32;;
11414;SDS011;5763;42.714;23.244;2023-05-07T07:10:49;9.45;;;8.45;;
11414;SDS011;5763;42.714;23.244;2023-05-07T07:13:16;11.70;;;9.38;;
11414;SDS011;5763;42.714;23.244;2023-05-07T07:15:44;10.65;;;9.35;;
11414;SDS011;5763;42.714;23.244;2023-05-07T07:18:12;10.18;;;9.07;;
11414;SDS011;5763;42.714;23.244;2023-05-07T07:20:39;9.48;;;8.52;;
11414;SDS011;5763;42.714;23.244;2023-05-07T07:23:06;12.10;;;8.13;;
11414;SDS011;5763;42.714;23.244;2023-05-07T07:25:34;8.98;;;8.07;;
11414;SDS011;5763;42.714;23.244;2023-05-07T07:28:01;9.57;;;8.57;;
11414;SDS011;5763;42.714;23.244;2023-05-07T07:30:28;9.80;;;8.73;;
11414;SDS011;5763;42.714;23.244;2023-05-07T07:32:55;10.73;;;9.00;;
11414;SDS011;5763;42.714;23.244;2023-05-07T07:35:28;11.20;;;8.10;;
11414;SDS011;5763;42.714;23.244;2023-05-07T07:37:55;12.05;;;9.30;;
11414;SDS011;5763;42.714;23.244;2023-05-07T07:40:22;12.10;;;9.85;;
11414;SDS011;5763;42.714;23.244;2023-05-07T07:42:51;10.50;;;8.98;;
11414;SDS011;5763;42.714;23.244;2023-05-07T07:45:18;10.15;;;8.75;;
11414;SDS011;5763;42.714;23.244;2023-05-07T07:47:46;10.93;;;9.55;;
11414;SDS011;5763;42.714;23.244;2023-05-07T07:50:13;11.27;;;7.93;;
11414;SDS011;5763;42.714;23.244;2023-05-07T07:52:39;8.30;;;6.50;;
11414;SDS011;5763;42.714;23.244;2023-05-07T07:55:07;8.23;;;6.68;;
11414;SDS011;5763;42.714;23.244;2023-05-07T07:57:34;11.13;;;8.48;;
11414;SDS011;5763;42.714;23.244;2023-05-07T08:00:03;11.00;;;7.88;;
11414;SDS011;5763;42.714;23.244;2023-05-07T08:02:32;10.95;;;8.07;;
11414;SDS011;5763;42.714;23.244;2023-05-07T08:04:59;7.32;;;6.60;;
11414;SDS011;5763;42.714;23.244;2023-05-07T08:07:26;8.90;;;7.70;;
11414;SDS011;5763;42.714;23.244;2023-05-07T08:09:53;9.20;;;8.30;;
11414;SDS011;5763;42.714;23.244;2023-05-07T08:12:20;12.00;;;10.70;;
11414;SDS011;5763;42.714;23.244;2023-05-07T08:14:47;7.53;;;6.82;;
11414;SDS011;5763;42.714;23.244;2023-05-07T08:17:15;9.80;;;6.70;;
11414;SDS011;5763;42.714;23.244;2023-05-07T08:19:42;8.95;;;6.45;;
11414;SDS011;5763;42.714;23.244;2023-05-07T08:22:09;6.18;;;5.68;;
11414;SDS011;5763;42.714;23.244;2023-05-07T08:24:36;7.68;;;6.35;;
11414;SDS011;5763;42.714;23.244;2023-05-07T08:27:03;8.98;;;7.95;;
11414;SDS011;5763;42.714;23.244;2023-05-07T08:29:30;6.75;;;6.00;;
11414;SDS011;5763;42.714;23.244;2023-05-07T08:31:57;7.85;;;5.80;;
11414;SDS011;5763;42.714;23.244;2023-05-07T08:34:25;6.85;;;5.80;;
11414;SDS011;5763;42.714;23.244;2023-05-07T08:36:52;5.93;;;5.25;;
11414;SDS011;5763;42.714;23.244;2023-05-07T08:39:19;5.60;;;4.82;;
11414;SDS011;5763;42.714;23.244;2023-05-07T08:41:46;6.43;;;5.82;;
11414;SDS011;5763;42.714;23.244;2023-05-07T08:44:17;5.85;;;5.25;;
11414;SDS011;5763;42.714;23.244;2023-05-07T08:46:48;7.10;;;5.28;;
11414;SDS011;5763;42.714;23.244;2023-05-07T08:49:19;5.95;;;5.32;;
11414;SDS011;5763;42.714;23.244;2023-05-07T08:51:48;8.35;;;5.32;;
11414;SDS011;5763;42.714;23.244;2023-05-07T08:54:15;6.97;;;6.18;;
11414;SDS011;5763;42.714;23.244;2023-05-07T08:56:43;7.78;;;6.57;;
11414;SDS011;5763;42.714;23.244;2023-05-07T08:59:10;13.80;;;10.80;;
11414;SDS011;5763;42.714;23.244;2023-05-07T09:01:37;16.45;;;14.43;;
11414;SDS011;5763;42.714;23.244;2023-05-07T09:04:04;15.65;;;12.75;;
11414;SDS011;5763;42.714;23.244;2023-05-07T09:06:32;12.82;;;10.30;;
11414;SDS011;5763;42.714;23.244;2023-05-07T09:09:01;10.20;;;8.52;;
11414;SDS011;5763;42.714;23.244;2023-05-07T09:11:30;12.10;;;10.90;;
11414;SDS011;5763;42.714;23.244;2023-05-07T09:14:00;7.68;;;6.63;;
11414;SDS011;5763;42.714;23.244;2023-05-07T09:16:28;5.18;;;4.75;;
11414;SDS011;5763;42.714;23.244;2023-05-07T09:18:57;6.57;;;4.63;;
11414;SDS011;5763;42.714;23.244;2023-05-07T09:21:25;4.65;;;4.22;;
11414;SDS011;5763;42.714;23.244;2023-05-07T09:23:52;4.65;;;4.25;;
11414;SDS011;5763;42.714;23.244;2023-05-07T09:26:22;4.90;;;4.50;;
11414;SDS011;5763;42.714;23.244;2023-05-07T09:28:49;4.90;;;4.38;;
11414;SDS011;5763;42.714;23.244;2023-05-07T09:31:16;5.22;;;4.72;;
11414;SDS011;5763;42.714;23.244;2023-05-07T09:33:44;4.78;;;4.28;;
11414;SDS011;5763;42.714;23.244;2023-05-07T09:36:11;6.45;;;4.32;;
11414;SDS011;5763;42.714;23.244;2023-05-07T09:38:38;4.13;;;3.72;;
11414;SDS011;5763;42.714;23.244;2023-05-07T09:41:06;4.90;;;4.13;;
11414;SDS011;5763;42.714;23.244;2023-05-07T09:43:37;5.82;;;4.05;;
11414;SDS011;5763;42.714;23.244;2023-05-07T09:46:07;4.53;;;4.10;;
11414;SDS011;5763;42.714;23.244;2023-05-07T09:48:38;4.57;;;3.92;;
11414;SDS011;5763;42.714;23.244;2023-05-07T09:51:11;5.38;;;3.67;;
11414;SDS011;5763;42.714;23.244;2023-05-07T09:53:44;5.93;;;4.50;;
11414;SDS011;5763;42.714;23.244;2023-05-07T09:56:12;5.03;;;3.83;;
11414;SDS011;5763;42.714;23.244;2023-05-07T09:58:43;7.18;;;4.03;;
11414;SDS011;5763;42.714;23.244;2023-05-07T10:01:14;4.93;;;3.80;;
11414;SDS011;5763;42.714;23.244;2023-05-07T10:03:44;5.28;;;4.00;;
11414;SDS011;5763;42.714;23.244;2023-05-07T10:06:24;4.85;;;3.65;;
11414;SDS011;5763;42.714;23.244;2023-05-07T10:08:52;3.35;;;3.05;;
11414;SDS011;5763;42.714;23.244;2023-05-07T10:11:19;4.95;;;2.95;;
11414;SDS011;5763;42.714;23.244;2023-05-07T10:13:49;4.22;;;2.90;;
11414;SDS011;5763;42.714;23.244;2023-05-07T10:16:18;3.08;;;2.78;;
11414;SDS011;5763;42.714;23.244;2023-05-07T10:18:45;5.55;;;2.78;;
11414;SDS011;5763;42.714;23.244;2023-05-07T10:21:14;5.28;;;3.00;;
11414;SDS011;5763;42.714;23.244;2023-05-07T10:23:44;2.70;;;2.50;;
11414;SDS011;5763;42.714;23.244;2023-05-07T10:26:12;3.13;;;2.85;;
11414;SDS011;5763;42.714;23.244;2023-05-07T10:28:41;3.42;;;2.97;;
11414;SDS011;5763;42.714;23.244;2023-05-07T10:31:31;2.67;;;2.47;;
11414;SDS011;5763;42.714;23.244;2023-05-07T10:34:09;2.47;;;2.28;;
11414;SDS011;5763;42.714;23.244;2023-05-07T10:36:40;3.58;;;2.63;;
11414;SDS011;5763;42.714;23.244;2023-05-07T10:39:07;2.55;;;2.35;;
11414;SDS011;5763;42.714;23.244;2023-05-07T10:41:35;3.33;;;2.40;;
11414;SDS011;5763;42.714;23.244;2023-05-07T10:44:06;2.90;;;2.53;;
11414;SDS011;5763;42.714;23.244;2023-05-07T10:46:35;2.60;;;2.40;;
11414;SDS011;5763;42.714;23.244;2023-05-07T10:49:11;3.03;;;2.72;;
11414;SDS011;5763;42.714;23.244;2023-05-07T10:51:38;4.68;;;2.70;;
11414;SDS011;5763;42.714;23.244;2023-05-07T10:54:23;3.28;;;2.70;;
11414;SDS011;5763;42.714;23.244;2023-05-07T10:56:50;2.63;;;2.33;;
11414;SDS011;5763;42.714;23.244;2023-05-07T11:02:09;3.00;;;2.70;;
11414;SDS011;5763;42.714;23.244;2023-05-07T11:04:39;4.05;;;2.60;;
11414;SDS011;5763;42.714;23.244;2023-05-07T11:07:17;3.28;;;2.30;;
11414;SDS011;5763;42.714;23.244;2023-05-07T11:09:55;2.45;;;2.25;;
11414;SDS011;5763;42.714;23.244;2023-05-07T11:12:49;2.38;;;2.17;;
11414;SDS011;5763;42.714;23.244;2023-05-07T11:18:12;3.88;;;2.83;;
11414;SDS011;5763;42.714;23.244;2023-05-07T11:26:42;3.08;;;2.40;;
11414;SDS011;5763;42.714;23.244;2023-05-07T11:29:14;3.25;;;2.53;;
11414;SDS011;5763;42.714;23.244;2023-05-07T11:31:42;3.53;;;2.45;;
11414;SDS011;5763;42.714;23.244;2023-05-07T11:34:10;3.20;;;2.90;;
11414;SDS011;5763;42.714;23.244;2023-05-07T11:36:41;3.72;;;2.72;;
11414;SDS011;5763;42.714;23.244;2023-05-07T11:41:51;3.03;;;2.38;;
11414;SDS011;5763;42.714;23.244;2023-05-07T11:44:18;3.20;;;2.50;;
11414;SDS011;5763;42.714;23.244;2023-05-07T11:46:45;3.03;;;2.47;;
11414;SDS011;5763;42.714;23.244;2023-05-07T11:49:13;2.28;;;2.00;;
11414;SDS011;5763;42.714;23.244;2023-05-07T11:51:40;2.47;;;2.03;;
11414;SDS011;5763;42.714;23.244;2023-05-07T11:54:08;2.72;;;2.50;;
11414;SDS011;5763;42.714;23.244;2023-05-07T11:56:37;2.63;;;2.42;;
11414;SDS011;5763;42.714;23.244;2023-05-07T11:59:04;4.10;;;2.10;;
11414;SDS011;5763;42.714;23.244;2023-05-07T12:01:31;3.22;;;2.45;;
11414;SDS011;5763;42.714;23.244;2023-05-07T12:03:58;2.70;;;2.50;;
11414;SDS011;5763;42.714;23.244;2023-05-07T12:06:30;2.63;;;2.10;;
11414;SDS011;5763;42.714;23.244;2023-05-07T12:08:57;2.92;;;2.50;;
11414;SDS011;5763;42.714;23.244;2023-05-07T12:11:25;2.95;;;2.30;;
11414;SDS011;5763;42.714;23.244;2023-05-07T12:13:53;2.53;;;2.00;;
11414;SDS011;5763;42.714;23.244;2023-05-07T12:16:21;2.67;;;2.22;;
11414;SDS011;5763;42.714;23.244;2023-05-07T12:18:50;2.40;;;2.20;;
11414;SDS011;5763;42.714;23.244;2023-05-07T12:21:20;3.03;;;2.33;;
11414;SDS011;5763;42.714;23.244;2023-05-07T12:23:48;3.22;;;2.15;;
11414;SDS011;5763;42.714;23.244;2023-05-07T12:26:15;2.35;;;2.20;;
11414;SDS011;5763;42.714;23.244;2023-05-07T12:28:42;3.10;;;2.78;;
11414;SDS011;5763;42.714;23.244;2023-05-07T12:31:09;2.67;;;2.30;;
11414;SDS011;5763;42.714;23.244;2023-05-07T12:33:36;3.00;;;2.33;;
11414;SDS011;5763;42.714;23.244;2023-05-07T12:36:05;2.65;;;2.45;;
11414;SDS011;5763;42.714;23.244;2023-05-07T12:38:37;2.83;;;2.53;;
11414;SDS011;5763;42.714;23.244;2023-05-07T12:41:07;3.53;;;2.65;;
11414;SDS011;5763;42.714;23.244;2023-05-07T12:43:37;3.97;;;2.22;;
11414;SDS011;5763;42.714;23.244;2023-05-07T12:46:06;2.90;;;2.50;;
11414;SDS011;5763;42.714;23.244;2023-05-07T12:48:35;3.35;;;2.20;;
11414;SDS011;5763;42.714;23.244;2023-05-07T12:51:03;2.65;;;2.13;;
11414;SDS011;5763;42.714;23.244;2023-05-07T12:53:34;2.58;;;2.10;;
11414;SDS011;5763;42.714;23.244;2023-05-07T12:56:08;2.65;;;2.30;;
11414;SDS011;5763;42.714;23.244;2023-05-07T12:58:35;2.60;;;2.40;;
11414;SDS011;5763;42.714;23.244;2023-05-07T13:01:04;2.22;;;2.03;;
11414;SDS011;5763;42.714;23.244;2023-05-07T13:03:35;3.60;;;2.67;;
11414;SDS011;5763;42.714;23.244;2023-05-07T13:06:03;3.20;;;2.83;;
11414;SDS011;5763;42.714;23.244;2023-05-07T13:08:33;3.25;;;2.30;;
11414;SDS011;5763;42.714;23.244;2023-05-07T13:11:01;2.35;;;2.13;;
11414;SDS011;5763;42.714;23.244;2023-05-07T13:13:31;2.75;;;2.50;;
11414;SDS011;5763;42.714;23.244;2023-05-07T13:15:58;2.17;;;1.98;;
11414;SDS011;5763;42.714;23.244;2023-05-07T13:18:25;3.50;;;2.60;;
11414;SDS011;5763;42.714;23.244;2023-05-07T13:20:52;3.17;;;2.55;;
11414;SDS011;5763;42.714;23.244;2023-05-07T13:23:20;2.53;;;2.33;;
11414;SDS011;5763;42.714;23.244;2023-05-07T13:25:47;2.55;;;2.35;;
11414;SDS011;5763;42.714;23.244;2023-05-07T13:28:14;2.53;;;2.33;;
11414;SDS011;5763;42.714;23.244;2023-05-07T13:30:43;2.60;;;2.40;;
11414;SDS011;5763;42.714;23.244;2023-05-07T13:33:09;4.85;;;2.72;;
11414;SDS011;5763;42.714;23.244;2023-05-07T13:35:37;5.75;;;2.72;;
11414;SDS011;5763;42.714;23.244;2023-05-07T13:38:04;2.72;;;2.50;;
11414;SDS011;5763;42.714;23.244;2023-05-07T13:40:31;3.20;;;2.50;;
11414;SDS011;5763;42.714;23.244;2023-05-07T13:42:58;2.80;;;2.40;;
11414;SDS011;5763;42.714;23.244;2023-05-07T13:45:27;3.53;;;2.45;;
11414;SDS011;5763;42.714;23.244;2023-05-07T13:47:56;2.60;;;2.40;;
11414;SDS011;5763;42.714;23.244;2023-05-07T13:50:23;3.13;;;2.50;;
11414;SDS011;5763;42.714;23.244;2023-05-07T13:52:51;3.85;;;2.78;;
11414;SDS011;5763;42.714;23.244;2023-05-07T13:55:19;2.83;;;2.63;;
11414;SDS011;5763;42.714;23.244;2023-05-07T13:57:53;2.80;;;2.60;;
11414;SDS011;5763;42.714;23.244;2023-05-07T14:00:22;3.08;;;2.78;;
11414;SDS011;5763;42.714;23.244;2023-05-07T14:02:49;3.63;;;2.72;;
11414;SDS011;5763;42.714;23.244;2023-05-07T14:05:20;2.58;;;2.38;;
11414;SDS011;5763;42.714;23.244;2023-05-07T14:07:48;2.75;;;2.55;;
11414;SDS011;5763;42.714;23.244;2023-05-07T14:10:16;2.88;;;2.28;;
11414;SDS011;5763;42.714;23.244;2023-05-07T14:12:44;4.03;;;2.22;;
11414;SDS011;5763;42.714;23.244;2023-05-07T14:15:11;3.00;;;2.60;;
11414;SDS011;5763;42.714;23.244;2023-05-07T14:17:38;2.50;;;2.30;;
11414;SDS011;5763;42.714;23.244;2023-05-07T14:20:05;2.88;;;2.35;;
11414;SDS011;5763;42.714;23.244;2023-05-07T14:22:34;4.82;;;2.60;;
11414;SDS011;5763;42.714;23.244;2023-05-07T14:25:01;3.40;;;2.38;;
11414;SDS011;5763;42.714;23.244;2023-05-07T14:27:28;2.70;;;2.50;;
11414;SDS011;5763;42.714;23.244;2023-05-07T14:29:55;3.53;;;2.28;;
11414;SDS011;5763;42.714;23.244;2023-05-07T14:32:22;3.15;;;2.38;;
11414;SDS011;5763;42.714;23.244;2023-05-07T14:34:49;3.38;;;2.30;;
11414;SDS011;5763;42.714;23.244;2023-05-07T14:37:16;2.65;;;2.40;;
11414;SDS011;5763;42.714;23.244;2023-05-07T14:39:46;3.15;;;2.83;;
11414;SDS011;5763;42.714;23.244;2023-05-07T14:42:16;3.78;;;2.33;;
11414;SDS011;5763;42.714;23.244;2023-05-07T14:44:45;3.33;;;2.60;;
11414;SDS011;5763;42.714;23.244;2023-05-07T14:47:13;3.08;;;2.38;;
11414;SDS011;5763;42.714;23.244;2023-05-07T14:49:41;2.75;;;2.53;;
11414;SDS011;5763;42.714;23.244;2023-05-07T14:52:08;3.88;;;2.80;;
11414;SDS011;5763;42.714;23.244;2023-05-07T14:54:40;2.97;;;2.78;;
11414;SDS011;5763;42.714;23.244;2023-05-07T14:57:09;5.53;;;2.42;;
11414;SDS011;5763;42.714;23.244;2023-05-07T14:59:38;2.45;;;2.22;;
11414;SDS011;5763;42.714;23.244;2023-05-07T15:02:07;3.92;;;2.97;;
11414;SDS011;5763;42.714;23.244;2023-05-07T15:04:35;2.70;;;2.50;;